createdAt,value
2023-01-13T00:01:44.374Z,8.85
2023-01-13T00:04:29.828Z,6.28
2023-01-13T00:07:15.833Z,7.35
2023-01-13T00:10:01.233Z,7.53
2023-01-13T00:12:46.860Z,7.70
2023-01-13T00:15:33.782Z,7.47
2023-01-13T00:18:19.620Z,8.43
2023-01-13T00:21:21.847Z,5.82
2023-01-13T00:24:07.368Z,6.00
2023-01-13T00:26:57.663Z,9.23
2023-01-13T00:29:43.351Z,8.70
2023-01-13T00:32:28.934Z,6.65
2023-01-13T00:35:14.509Z,5.80
2023-01-13T00:38:00.216Z,8.52
2023-01-13T00:40:59.614Z,5.97
2023-01-13T00:43:46.396Z,8.60
2023-01-13T00:46:32.067Z,5.90
2023-01-13T00:49:17.914Z,11.60
2023-01-13T00:52:11.782Z,8.48
2023-01-13T00:54:57.420Z,6.55
2023-01-13T00:57:43.554Z,7.15
2023-01-13T01:00:35.653Z,5.05
2023-01-13T01:03:21.461Z,7.32
2023-01-13T01:06:15.755Z,6.40
2023-01-13T01:09:01.496Z,9.93
2023-01-13T01:11:47.439Z,7.00
2023-01-13T01:14:32.768Z,9.32
2023-01-13T01:17:20.329Z,7.53
2023-01-13T01:20:06.341Z,7.93
2023-01-13T01:22:51.825Z,8.80
2023-01-13T01:25:37.261Z,7.55
2023-01-13T01:28:23.149Z,7.85
2023-01-13T01:31:28.362Z,5.32
2023-01-13T01:34:14.191Z,6.38
2023-01-13T01:36:59.696Z,6.60
2023-01-13T01:39:45.150Z,5.90
2023-01-13T01:42:48.980Z,7.93
2023-01-13T01:45:35.029Z,3.92
2023-01-13T01:48:21.213Z,7.18
2023-01-13T01:51:12.748Z,4.20
2023-01-13T01:54:00.276Z,5.57
2023-01-13T01:56:47.348Z,5.97
2023-01-13T01:59:33.730Z,4.32
2023-01-13T02:02:19.790Z,5.70
2023-01-13T02:05:06.677Z,4.20
2023-01-13T02:07:56.195Z,3.72
2023-01-13T02:10:45.797Z,4.30
2023-01-13T02:13:31.406Z,4.55
2023-01-13T02:16:24.434Z,6.13
2023-01-13T02:19:39.265Z,5.20
2023-01-13T02:23:00.567Z,7.10
2023-01-13T02:26:07.091Z,6.80
2023-01-13T02:29:31.190Z,5.63
2023-01-13T02:32:45.279Z,5.85
2023-01-13T02:35:52.043Z,6.82
2023-01-13T02:38:56.704Z,8.50
2023-01-13T02:43:12.411Z,3.25
2023-01-13T02:46:08.999Z,5.25
2023-01-13T02:48:58.106Z,5.10
2023-01-13T02:52:08.867Z,6.60
2023-01-13T02:55:34.597Z,8.60
2023-01-13T02:58:27.988Z,4.45
2023-01-13T03:01:13.877Z,4.72
2023-01-13T03:03:59.645Z,5.63
2023-01-13T03:06:46.721Z,5.38
2023-01-13T03:09:48.459Z,3.60
2023-01-13T03:13:20.863Z,5.82
2023-01-13T03:16:56.605Z,5.22
2023-01-13T03:20:20.640Z,6.35
2023-01-13T03:23:30.204Z,5.47
2023-01-13T03:26:52.766Z,3.92
2023-01-13T03:29:58.143Z,4.07
2023-01-13T03:32:52.276Z,4.30
2023-01-13T03:35:44.329Z,6.68
2023-01-13T03:38:54.793Z,3.20
2023-01-13T03:41:57.416Z,4.47
2023-01-13T03:44:59.380Z,3.03
2023-01-13T03:47:56.370Z,4.40
2023-01-13T03:50:50.261Z,3.35
2023-01-13T03:54:05.414Z,4.05
2023-01-13T03:57:04.921Z,3.85
2023-01-13T03:59:56.025Z,3.67
2023-01-13T04:02:53.410Z,3.75
2023-01-13T04:05:46.991Z,3.88
2023-01-13T04:08:37.151Z,4.40
2023-01-13T04:11:38.808Z,2.95
2023-01-13T04:14:26.944Z,4.78
2023-01-13T04:17:12.760Z,2.78
2023-01-13T04:19:58.640Z,3.58
2023-01-13T04:22:44.080Z,2.88
2023-01-13T04:25:29.617Z,2.58
2023-01-13T04:28:16.038Z,2.78
2023-01-13T04:31:01.723Z,4.50
2023-01-13T04:33:47.728Z,3.55
2023-01-13T04:36:33.561Z,4.28
2023-01-13T04:39:19.445Z,6.95
2023-01-13T04:42:05.016Z,5.88
2023-01-13T04:44:50.489Z,3.58
2023-01-13T04:47:36.613Z,5.47
2023-01-13T04:50:22.794Z,5.15
2023-01-13T04:53:08.539Z,3.88
2023-01-13T04:55:53.917Z,5.25
2023-01-13T04:58:39.278Z,4.20
2023-01-13T05:01:24.851Z,4.50
2023-01-13T05:04:10.708Z,4.85
2023-01-13T05:06:56.350Z,3.00
2023-01-13T05:09:41.876Z,3.72
2023-01-13T05:12:46.308Z,5.88
2023-01-13T05:15:50.797Z,4.18
2023-01-13T05:18:36.554Z,3.95
2023-01-13T05:21:41.149Z,6.28
2023-01-13T05:24:44.864Z,4.10
2023-01-13T05:27:31.612Z,3.67
2023-01-13T05:30:17.996Z,6.40
2023-01-13T05:33:04.885Z,4.53
2023-01-13T05:35:50.324Z,7.38
2023-01-13T05:38:35.697Z,4.35
2023-01-13T05:41:39.604Z,5.47
2023-01-13T05:44:25.396Z,3.42
2023-01-13T05:47:11.027Z,5.45
2023-01-13T05:49:56.323Z,4.43
2023-01-13T05:52:43.458Z,4.15
2023-01-13T05:55:28.993Z,3.13
2023-01-13T05:58:16.485Z,4.13
2023-01-13T06:01:07.274Z,6.63
2023-01-13T06:03:53.035Z,4.10
2023-01-13T06:06:38.751Z,5.97
2023-01-13T06:09:25.894Z,2.75
2023-01-13T06:12:13.378Z,3.95
2023-01-13T06:14:58.981Z,11.45
2023-01-13T06:17:44.692Z,4.93
2023-01-13T06:20:29.999Z,4.65
2023-01-13T06:23:16.085Z,4.22
2023-01-13T06:26:18.556Z,3.78
2023-01-13T06:31:50.654Z,8.05
2023-01-13T06:34:37.873Z,3.25
2023-01-13T06:37:26.166Z,4.90
2023-01-13T06:40:14.108Z,5.82
2023-01-13T06:43:16.409Z,7.72
2023-01-13T06:48:48.412Z,4.97
2023-01-13T06:51:33.961Z,6.07
2023-01-13T06:54:19.332Z,4.53
2023-01-13T06:57:04.816Z,6.20
2023-01-13T06:59:50.924Z,6.15
2023-01-13T07:02:36.358Z,7.70
2023-01-13T07:05:22.914Z,7.32
2023-01-13T07:08:09.398Z,8.35
2023-01-13T07:10:55.277Z,10.00
2023-01-13T07:13:59.474Z,11.15
2023-01-13T07:16:44.997Z,11.55
2023-01-13T07:19:31.157Z,8.75
2023-01-13T07:22:16.513Z,10.98
2023-01-13T07:25:01.800Z,9.13
2023-01-13T07:27:47.405Z,9.25
2023-01-13T07:30:32.760Z,7.97
2023-01-13T07:33:18.617Z,8.50
2023-01-13T07:36:06.252Z,8.85
2023-01-13T07:38:54.812Z,5.70
2023-01-13T07:41:59.652Z,8.20
2023-01-13T07:44:45.384Z,6.15
2023-01-13T07:47:31.299Z,4.63
2023-01-13T07:50:16.893Z,5.47
2023-01-13T07:53:03.030Z,5.88
2023-01-13T07:55:49.766Z,4.43
2023-01-13T07:58:37.191Z,5.82
2023-01-13T08:01:23.138Z,4.22
2023-01-13T08:04:08.999Z,6.40
2023-01-13T08:06:54.438Z,5.00
2023-01-13T08:09:40.311Z,4.70
2023-01-13T08:12:54.199Z,5.15
2023-01-13T08:15:42.571Z,6.38
2023-01-13T08:18:28.189Z,4.95
2023-01-13T08:21:14.867Z,9.13
2023-01-13T08:24:00.468Z,7.85
2023-01-13T08:26:45.889Z,6.53
2023-01-13T08:29:31.264Z,5.75
2023-01-13T08:32:17.209Z,5.30
2023-01-13T08:35:03.070Z,7.07
2023-01-13T08:37:49.527Z,5.50
2023-01-13T08:40:35.438Z,6.60
2023-01-13T08:43:20.853Z,7.10
2023-01-13T08:46:07.858Z,8.57
2023-01-13T08:48:53.230Z,5.85
2023-01-13T08:51:38.760Z,8.02
2023-01-13T08:54:24.011Z,7.55
2023-01-13T08:57:09.575Z,9.38
2023-01-13T08:59:55.252Z,8.38
2023-01-13T09:02:41.019Z,8.40
2023-01-13T09:05:26.736Z,8.30
2023-01-13T09:08:12.552Z,11.25
2023-01-13T09:10:58.184Z,6.95
2023-01-13T09:13:44.290Z,5.53
2023-01-13T09:16:29.866Z,6.97
2023-01-13T09:19:15.742Z,5.35
2023-01-13T09:22:01.004Z,8.82
2023-01-13T09:24:46.940Z,5.15
2023-01-13T09:27:32.577Z,7.80
2023-01-13T09:30:18.769Z,6.97
2023-01-13T09:33:24.489Z,7.15
2023-01-13T09:36:09.973Z,5.50
2023-01-13T09:38:55.317Z,6.10
2023-01-13T09:42:05.291Z,6.68
2023-01-13T09:45:05.718Z,8.82
2023-01-13T09:48:11.753Z,9.48
2023-01-13T09:51:20.922Z,6.40
2023-01-13T09:54:27.753Z,5.88
2023-01-13T09:57:16.488Z,9.57
2023-01-13T10:00:02.557Z,7.30
2023-01-13T10:03:21.212Z,10.35
2023-01-13T10:06:47.372Z,11.82
2023-01-13T10:09:52.194Z,15.00
2023-01-13T10:13:09.616Z,8.85
2023-01-13T10:16:24.194Z,9.43
2023-01-13T10:19:55.240Z,9.38
2023-01-13T10:23:14.347Z,5.47
2023-01-13T10:26:35.306Z,7.60
2023-01-13T10:29:29.625Z,6.85
2023-01-13T10:32:15.049Z,7.90
2023-01-13T10:35:01.671Z,5.55
2023-01-13T10:37:57.597Z,7.13
2023-01-13T10:40:53.970Z,10.73
2023-01-13T10:43:39.864Z,5.68
2023-01-13T10:46:25.603Z,9.18
2023-01-13T10:49:36.258Z,6.10
2023-01-13T10:52:31.916Z,7.85
2023-01-13T10:55:36.704Z,5.50
2023-01-13T10:58:22.279Z,8.93
2023-01-13T11:01:13.089Z,5.28
2023-01-13T11:03:59.064Z,6.07
2023-01-13T11:06:47.377Z,7.63
2023-01-13T11:09:33.690Z,8.75
2023-01-13T11:12:33.604Z,5.93
2023-01-13T11:15:24.515Z,9.48
2023-01-13T11:18:24.767Z,8.30
2023-01-13T11:21:23.028Z,11.48
2023-01-13T11:24:38.297Z,9.50
2023-01-13T11:27:47.977Z,9.98
2023-01-13T11:30:50.670Z,8.23
2023-01-13T11:36:43.542Z,6.05
2023-01-13T11:40:05.819Z,8.63
2023-01-13T11:43:16.701Z,6.77
2023-01-13T11:46:02.793Z,7.35
2023-01-13T11:48:48.332Z,8.52
2023-01-13T11:51:49.939Z,7.93
2023-01-13T11:55:15.788Z,6.55
2023-01-13T11:58:54.889Z,7.38
2023-01-13T12:02:19.686Z,6.32
2023-01-13T12:05:41.996Z,8.50
2023-01-13T12:09:19.147Z,7.85
2023-01-13T12:12:36.543Z,12.77
2023-01-13T12:15:22.494Z,10.60
2023-01-13T12:18:26.444Z,8.63
2023-01-13T12:21:33.128Z,8.10
2023-01-13T12:24:43.439Z,7.05
2023-01-13T12:27:57.966Z,5.95
2023-01-13T12:30:51.113Z,8.00
2023-01-13T12:33:51.986Z,6.18
2023-01-13T12:37:27.643Z,8.27
2023-01-13T12:40:47.057Z,8.15
2023-01-13T12:43:52.356Z,11.55
2023-01-13T12:46:56.262Z,10.35
2023-01-13T12:49:45.911Z,13.63
2023-01-13T12:52:46.035Z,12.00
2023-01-13T12:55:36.342Z,8.35
2023-01-13T12:58:28.641Z,15.20
2023-01-13T13:01:15.405Z,13.32
2023-01-13T13:04:10.281Z,11.82
2023-01-13T13:07:17.431Z,9.73
2023-01-13T13:10:16.496Z,11.63
2023-01-13T13:13:20.280Z,12.13
2023-01-13T13:16:31.911Z,10.27
2023-01-13T13:19:21.287Z,9.77
2023-01-13T13:22:12.547Z,7.60
2023-01-13T13:24:57.677Z,10.70
2023-01-13T13:27:49.106Z,7.18
2023-01-13T13:30:44.727Z,12.05
2023-01-13T13:33:56.729Z,10.65
2023-01-13T13:37:09.937Z,10.07
2023-01-13T13:40:14.840Z,14.30
2023-01-13T13:43:19.331Z,15.38
2023-01-13T13:49:11.989Z,12.55
2023-01-13T13:52:18.416Z,14.57
2023-01-13T13:55:28.808Z,13.52
2023-01-13T13:58:17.607Z,14.10
2023-01-13T14:01:05.438Z,15.02
2023-01-13T14:04:07.188Z,13.57
2023-01-13T14:07:00.128Z,19.63
2023-01-13T14:09:56.556Z,16.75
2023-01-13T14:12:42.524Z,16.25
2023-01-13T14:15:36.281Z,11.82
2023-01-13T14:18:22.724Z,12.38
2023-01-13T14:21:21.144Z,12.43
2023-01-13T14:24:17.605Z,11.65
2023-01-13T14:27:30.899Z,12.25
2023-01-13T14:30:18.759Z,12.00
2023-01-13T14:33:05.776Z,12.00
2023-01-13T14:36:23.201Z,12.52
2023-01-13T14:39:24.613Z,23.42
2023-01-13T14:42:15.642Z,28.23
2023-01-13T14:45:02.560Z,27.65
2023-01-13T14:47:53.662Z,16.15
2023-01-13T14:50:39.504Z,12.95
2023-01-13T14:53:47.157Z,21.83
2023-01-13T14:56:44.337Z,23.55
2023-01-13T15:00:19.043Z,20.13
2023-01-13T15:03:08.808Z,15.63
2023-01-13T15:05:54.632Z,13.98
2023-01-13T15:08:40.405Z,11.55
2023-01-13T15:11:28.703Z,21.67
2023-01-13T15:14:49.237Z,9.57
2023-01-13T15:17:35.061Z,9.85
2023-01-13T15:20:25.113Z,11.50
2023-01-13T15:23:11.265Z,11.45
2023-01-13T15:25:59.717Z,11.68
2023-01-13T15:28:45.678Z,12.55
2023-01-13T15:31:34.552Z,11.52
2023-01-13T15:34:20.611Z,15.48
2023-01-13T15:37:09.214Z,18.63
2023-01-13T15:39:55.013Z,19.10
2023-01-13T15:42:59.597Z,20.45
2023-01-13T15:46:05.300Z,28.40
2023-01-13T15:48:54.940Z,25.80
2023-01-13T15:51:40.943Z,22.77
2023-01-13T15:54:26.338Z,17.83
2023-01-13T15:57:29.115Z,15.82
2023-01-13T16:03:06.353Z,14.05
2023-01-13T16:05:51.737Z,16.80
2023-01-13T16:08:37.088Z,22.33
2023-01-13T16:11:22.325Z,21.70
2023-01-13T16:14:07.750Z,18.20
2023-01-13T16:16:53.087Z,20.58
2023-01-13T16:19:38.543Z,15.85
2023-01-13T16:22:23.990Z,15.57
2023-01-13T16:25:18.526Z,13.18
2023-01-13T16:28:04.219Z,13.82
2023-01-13T16:30:50.538Z,12.55
2023-01-13T16:33:36.298Z,13.93
2023-01-13T16:36:22.555Z,13.35
2023-01-13T16:39:21.726Z,15.25
2023-01-13T16:42:07.417Z,20.95
2023-01-13T16:44:52.940Z,16.42
2023-01-13T16:47:39.143Z,16.92
2023-01-13T16:50:41.135Z,18.50
2023-01-13T16:53:27.802Z,15.05
2023-01-13T16:56:29.134Z,16.05
2023-01-13T16:59:14.895Z,12.63
2023-01-13T17:02:02.086Z,15.30
2023-01-13T17:04:47.814Z,17.15
2023-01-13T17:07:33.601Z,17.20
2023-01-13T17:10:24.032Z,20.23
2023-01-13T17:13:15.936Z,23.25
2023-01-13T17:18:48.446Z,22.02
2023-01-13T17:21:34.081Z,20.52
2023-01-13T17:24:20.026Z,19.73
2023-01-13T17:27:05.541Z,20.27
2023-01-13T17:29:50.924Z,19.27
2023-01-13T17:32:36.544Z,20.70
2023-01-13T17:35:24.601Z,17.17
2023-01-13T17:38:10.242Z,21.00
2023-01-13T17:41:00.734Z,14.07
2023-01-13T17:43:47.934Z,15.68
2023-01-13T17:46:33.686Z,17.75
2023-01-13T17:49:21.745Z,16.25
2023-01-13T17:52:07.690Z,15.63
2023-01-13T17:54:53.630Z,17.45
2023-01-13T17:57:39.500Z,13.52
2023-01-13T18:00:24.854Z,17.90
2023-01-13T18:03:11.456Z,16.17
2023-01-13T18:06:04.227Z,16.17
2023-01-13T18:08:51.851Z,14.52
2023-01-13T18:11:37.698Z,14.57
2023-01-13T18:14:23.360Z,15.23
2023-01-13T18:17:08.765Z,16.92
2023-01-13T18:20:13.203Z,15.07
2023-01-13T18:23:16.905Z,19.25
2023-01-13T18:26:38.411Z,15.20
2023-01-13T18:29:24.029Z,17.55
2023-01-13T18:32:10.112Z,18.55
2023-01-13T18:35:05.016Z,19.65
2023-01-13T18:37:52.243Z,17.40
2023-01-13T18:40:37.700Z,18.58
2023-01-13T18:43:23.118Z,17.75
2023-01-13T18:46:08.659Z,22.95
2023-01-13T18:48:54.450Z,18.50
2023-01-13T18:51:39.839Z,22.13
2023-01-13T18:54:25.749Z,21.73
2023-01-13T18:57:10.950Z,22.25
2023-01-13T18:59:59.269Z,21.35
2023-01-13T19:02:47.253Z,19.58
2023-01-13T19:05:34.689Z,17.48
2023-01-13T19:08:20.305Z,17.80
2023-01-13T19:11:07.258Z,17.50
2023-01-13T19:13:53.206Z,12.05
2023-01-13T19:16:39.211Z,18.45
2023-01-13T19:19:24.647Z,15.35
2023-01-13T19:22:12.474Z,11.98
2023-01-13T19:24:58.948Z,15.52
2023-01-13T19:27:44.629Z,12.88
2023-01-13T19:30:30.002Z,11.98
2023-01-13T19:33:15.501Z,11.90
2023-01-13T19:36:03.311Z,14.88
2023-01-13T19:38:48.902Z,16.38
2023-01-13T19:41:53.079Z,20.73
2023-01-13T19:44:57.538Z,16.38
2023-01-13T19:47:45.341Z,14.30
2023-01-13T19:50:31.243Z,13.65
2023-01-13T19:53:17.955Z,11.80
2023-01-13T19:56:06.091Z,14.07
2023-01-13T19:58:51.646Z,11.80
2023-01-13T20:01:40.651Z,15.25
2023-01-13T20:04:37.672Z,16.02
2023-01-13T20:07:26.366Z,15.95
2023-01-13T20:10:13.356Z,17.83
2023-01-13T20:12:59.417Z,18.77
2023-01-13T20:15:44.811Z,13.82
2023-01-13T20:18:35.733Z,18.88
2023-01-13T20:21:21.142Z,14.55
2023-01-13T20:24:07.749Z,20.15
2023-01-13T20:26:54.582Z,12.75
2023-01-13T20:29:40.336Z,10.88
2023-01-13T20:32:25.790Z,16.13
2023-01-13T20:35:11.837Z,14.63
2023-01-13T20:37:57.283Z,13.43
2023-01-13T20:40:42.600Z,13.80
2023-01-13T20:43:28.081Z,12.55
2023-01-13T20:46:13.780Z,14.23
2023-01-13T20:48:59.608Z,12.15
2023-01-13T20:51:45.100Z,14.27
2023-01-13T20:54:30.661Z,14.57
2023-01-13T20:57:16.265Z,13.55
2023-01-13T21:00:02.836Z,15.93
2023-01-13T21:02:48.366Z,17.83
2023-01-13T21:05:36.340Z,18.05
2023-01-13T21:08:22.124Z,19.08
2023-01-13T21:11:10.491Z,15.90
2023-01-13T21:14:14.293Z,16.38
2023-01-13T21:17:00.438Z,14.63
2023-01-13T21:19:46.220Z,11.52
2023-01-13T21:22:31.724Z,10.13
2023-01-13T21:25:19.058Z,11.93
2023-01-13T21:28:10.178Z,10.85
2023-01-13T21:30:55.622Z,11.50
2023-01-13T21:33:41.087Z,12.48
2023-01-13T21:36:28.413Z,12.45
2023-01-13T21:39:15.975Z,11.88
2023-01-13T21:42:20.640Z,9.85
2023-01-13T21:45:25.359Z,12.23
2023-01-13T21:48:11.141Z,10.77
2023-01-13T21:51:01.208Z,10.85
2023-01-13T21:53:46.745Z,11.95
2023-01-13T21:56:32.253Z,12.93
2023-01-13T21:59:17.727Z,10.43
2023-01-13T22:02:25.013Z,11.75
2023-01-13T22:05:13.272Z,12.52
2023-01-13T22:07:58.769Z,12.77
2023-01-13T22:11:10.592Z,11.43
2023-01-13T22:14:13.405Z,10.35
2023-01-13T22:17:01.062Z,11.77
2023-01-13T22:19:53.845Z,13.25
2023-01-13T22:25:25.531Z,10.15
2023-01-13T22:28:13.878Z,12.27
2023-01-13T22:31:06.919Z,11.32
2023-01-13T22:33:55.210Z,13.77
2023-01-13T22:36:40.989Z,11.10
2023-01-13T22:39:26.882Z,11.55
2023-01-13T22:42:12.528Z,8.90
2023-01-13T22:44:58.124Z,10.15
2023-01-13T22:47:43.549Z,17.67
2023-01-13T22:50:29.256Z,10.63
2023-01-13T22:53:14.931Z,10.32
2023-01-13T22:56:01.095Z,15.48
2023-01-13T22:58:46.599Z,15.32
2023-01-13T23:01:35.047Z,13.38
2023-01-13T23:04:20.793Z,16.90
2023-01-13T23:07:07.967Z,17.73
2023-01-13T23:09:53.743Z,17.33
2023-01-13T23:12:39.093Z,11.43
2023-01-13T23:15:25.112Z,12.95
2023-01-13T23:18:10.393Z,13.35
2023-01-13T23:20:55.842Z,14.27
2023-01-13T23:23:41.434Z,13.18
2023-01-13T23:26:28.280Z,12.27
2023-01-13T23:29:13.858Z,13.75
2023-01-13T23:31:59.188Z,13.63
2023-01-13T23:34:44.505Z,11.93
2023-01-13T23:37:29.971Z,8.95
2023-01-13T23:40:15.355Z,10.32
2023-01-13T23:43:01.011Z,12.60
2023-01-13T23:45:47.377Z,11.38
2023-01-13T23:48:33.684Z,7.25
2023-01-13T23:51:21.330Z,8.63
2023-01-13T23:54:07.059Z,8.82
2023-01-13T23:56:52.709Z,7.72
2023-01-13T23:59:38.223Z,9.10
